Terminal Aerodrome Forecast
Issued by NWS

Current Version | Previous Version | Graphics & Text | Print | Product List | Glossary On
Versions: 1 2 3 4 5 6 7 8 9 10 11 12 13 14 15 16 17 18 19 20 21 22
000
FTUS41 KRLX 242324 AAA
TAFCKB
TAF AMD
KCKB 242324Z 2423/2524 26004KT P6SM FEW050
     FM250200 VRB03KT P6SM SCT250
     FM250900 00000KT 5SM BR FEW060
     FM251200 22004KT P6SM SCT250
     FM251800 25008KT P6SM SCT045=

USA.gov is the U.S. government's official web portal to all federal, state and local government web resources and services.